Airfield :
LOGIN :

Register | Disclaimer

   EN    FR    IT 

 










Legend :    VFR   Marginal VFR   IFR   Intensive IFR   Very Intensive IFR
Visi :
Ceiling :
>= 8 km
>= 3000ft
5 to 8 km
1000 to 3000 ft
1500m to 5 km
500 to 1000 ft
800 to 1500m
200 to 500 ft
< 800m
< 200 ft
Symbols :   Thunderstorms  Fog  Heavy snow  Heavy precipitations  Wind > 20 kt
SIGMETs :     Misc.  Thunderstorms  Icing  Turbulence  Mountain Waves  Volcanic Ashes






- Airport Elevation : 80 ft
- IATA code : LPL


EGGP - Liverpool John Lennon

CURRENT METAR :
  • 171750Z 22008KT CAVOK 05/02 Q1013

EXPIRED METARs :
  • 171720Z 24006KT CAVOK 06/03 Q1013
  • 171650Z 24009KT 9999 FEW035CB 06/03 Q1012
  • 171620Z 23007KT 9999 FEW034 FEW036CB 07/03 Q1011
  • 171550Z 23006KT 9999 FEW033 FEW048CB 07/04 Q1011

TAF TAF EGGP
Valid from the 17 at 18:00 until the 18 at 18:00 UTC


171658Z 1718/1818 27008KT 9999 SCT030
TEMPO 1718/1722 6000 SHRA BKN014
ATIS : +44 151 907 2000 (option 5 or ext 5150)
Met : +44 871 750 5150



MET'MAP, your aeronautical weather chart ! - Copyright ORBIFLY December 2007 - Disclaimer

ORBIFLY MET'MAP TEAM :

Programming & Development : Alexandra Zaïnal
Concept & original design : Baudouin d'Aumeries
Assistance for programming : Marc-Olivier Méhu
Technical & hardware support : Manuel Goepfert

Contact : metmap@orbifly.com




SOURCES & CREDITS :

   NOAA